createdAt,value
2022-12-18T00:02:24.078Z,101815.00
2022-12-18T00:14:37.433Z,101804.78
2022-12-18T00:17:23.062Z,101807.59
2022-12-18T00:24:24.321Z,101811.06
2022-12-18T00:32:33.207Z,101807.41
2022-12-18T00:36:24.954Z,101804.94
2022-12-18T00:43:25.300Z,101802.28
2022-12-18T00:49:26.281Z,101806.59
2022-12-18T00:54:58.104Z,101801.69
2022-12-18T01:08:27.428Z,101796.63
2022-12-18T01:11:25.014Z,101798.41
2022-12-18T01:16:55.988Z,101806.47
2022-12-18T01:19:29.653Z,101808.34
2022-12-18T01:22:22.771Z,101803.50
2022-12-18T01:25:26.962Z,101806.53
2022-12-18T01:27:55.592Z,101800.78
2022-12-18T01:30:24.297Z,101812.72
2022-12-18T01:39:00.293Z,101803.44
2022-12-18T01:45:22.337Z,101812.47
2022-12-18T01:48:29.921Z,101803.81
2022-12-18T01:51:33.073Z,101800.25
2022-12-18T01:54:31.202Z,101801.16
2022-12-18T01:57:27.279Z,101808.34
2022-12-18T02:00:27.979Z,101799.72
2022-12-18T02:06:30.300Z,101804.16
2022-12-18T02:09:35.295Z,101793.69
2022-12-18T02:12:21.634Z,101802.72
2022-12-18T02:15:12.076Z,101793.53
2022-12-18T02:17:56.931Z,101795.78
2022-12-18T02:20:35.803Z,101799.50
2022-12-18T02:23:07.123Z,101793.72
2022-12-18T02:25:53.788Z,101799.56
2022-12-18T02:28:24.794Z,101787.84
2022-12-18T02:30:55.533Z,101789.25
2022-12-18T02:33:25.105Z,101794.94
2022-12-18T02:35:55.995Z,101784.53
2022-12-18T02:38:25.881Z,101783.00
2022-12-18T02:40:55.728Z,101791.13
2022-12-18T02:43:23.963Z,101786.94
2022-12-18T02:45:58.546Z,101779.25
2022-12-18T02:48:31.635Z,101782.13
2022-12-18T02:51:17.601Z,101783.97
2022-12-18T02:54:00.857Z,101787.81
2022-12-18T02:56:33.465Z,101787.06
2022-12-18T02:59:13.832Z,101792.31
2022-12-18T03:01:59.718Z,101797.59
2022-12-18T03:04:40.277Z,101794.25
2022-12-18T03:07:15.754Z,101796.06
2022-12-18T03:09:48.725Z,101792.66
2022-12-18T03:12:26.481Z,101803.31
2022-12-18T03:15:20.924Z,101793.63
2022-12-18T03:18:14.532Z,101797.16
2022-12-18T03:20:45.879Z,101794.97
2022-12-18T03:23:19.278Z,101789.09
2022-12-18T03:25:49.969Z,101790.31
2022-12-18T03:28:23.252Z,101798.31
2022-12-18T03:31:01.003Z,101798.88
2022-12-18T03:34:01.170Z,101797.97
2022-12-18T03:36:32.515Z,101790.09
2022-12-18T03:39:00.834Z,101793.19
2022-12-18T03:41:46.350Z,101793.97
2022-12-18T03:44:32.741Z,101790.00
2022-12-18T03:47:09.207Z,101790.25
2022-12-18T03:50:12.491Z,101785.16
2022-12-18T03:52:54.385Z,101784.56
2022-12-18T03:55:24.296Z,101786.63
2022-12-18T03:57:54.737Z,101775.84
2022-12-18T04:00:23.810Z,101780.38
2022-12-18T04:02:55.745Z,101778.06
2022-12-18T04:05:26.851Z,101782.81
2022-12-18T04:07:57.109Z,101782.03
2022-12-18T04:10:25.332Z,101785.78
2022-12-18T04:12:57.570Z,101789.81
2022-12-18T04:15:26.433Z,101791.97
2022-12-18T04:17:56.166Z,101793.69
2022-12-18T04:20:24.462Z,101797.63
2022-12-18T04:22:52.801Z,101792.94
2022-12-18T04:25:21.611Z,101791.75
2022-12-18T04:27:49.873Z,101797.28
2022-12-18T04:30:18.429Z,101792.06
2022-12-18T04:32:52.068Z,101795.59
2022-12-18T04:35:20.707Z,101791.63
2022-12-18T04:37:49.066Z,101796.13
2022-12-18T04:40:17.696Z,101796.44
2022-12-18T04:42:46.073Z,101793.97
2022-12-18T04:45:14.783Z,101787.63
2022-12-18T04:47:43.101Z,101796.38
2022-12-18T04:50:11.641Z,101793.13
2022-12-18T04:52:39.871Z,101795.09
2022-12-18T04:55:08.631Z,101799.38
2022-12-18T04:57:37.067Z,101792.13
2022-12-18T05:00:05.912Z,101785.84
2022-12-18T05:02:34.750Z,101790.78
2022-12-18T05:05:03.112Z,101801.66
2022-12-18T05:07:31.766Z,101787.81
2022-12-18T05:10:00.165Z,101797.13
2022-12-18T05:12:28.752Z,101804.66
2022-12-18T05:14:57.122Z,101811.88
2022-12-18T05:17:25.528Z,101804.09
2022-12-18T05:19:54.959Z,101802.22
2022-12-18T05:22:23.341Z,101799.88
2022-12-18T05:24:51.725Z,101793.47
2022-12-18T05:27:22.480Z,101792.41
2022-12-18T05:29:51.057Z,101788.47
2022-12-18T05:32:19.535Z,101801.91
2022-12-18T05:34:48.112Z,101789.59
2022-12-18T05:37:16.887Z,101794.84
2022-12-18T05:39:45.637Z,101794.72
2022-12-18T05:42:14.113Z,101797.84
2022-12-18T05:44:42.650Z,101794.66
2022-12-18T05:47:11.155Z,101793.53
2022-12-18T05:49:39.676Z,101792.56
2022-12-18T05:52:07.989Z,101802.34
2022-12-18T05:54:36.538Z,101804.16
2022-12-18T05:57:04.842Z,101794.75
2022-12-18T05:59:33.124Z,101793.53
2022-12-18T06:02:01.481Z,101794.13
2022-12-18T06:04:30.744Z,101792.72
2022-12-18T06:06:59.479Z,101795.53
2022-12-18T06:09:28.030Z,101800.91
2022-12-18T06:11:56.307Z,101803.50
2022-12-18T06:14:24.535Z,101801.81
2022-12-18T06:16:55.883Z,101795.75
2022-12-18T06:19:28.092Z,101800.13
2022-12-18T06:21:56.333Z,101810.69
2022-12-18T06:24:24.619Z,101801.16
2022-12-18T06:26:52.902Z,101798.69
2022-12-18T06:29:21.419Z,101797.94
2022-12-18T06:31:49.892Z,101798.03
2022-12-18T06:34:18.592Z,101796.44
2022-12-18T06:36:46.936Z,101805.41
2022-12-18T06:39:15.444Z,101799.47
2022-12-18T06:41:43.997Z,101800.47
2022-12-18T06:44:12.959Z,101797.88
2022-12-18T06:46:41.990Z,101795.28
2022-12-18T06:49:11.495Z,101799.88
2022-12-18T06:51:39.942Z,101793.81
2022-12-18T06:54:08.426Z,101793.06
2022-12-18T06:56:36.940Z,101793.91
2022-12-18T06:59:05.558Z,101796.59
2022-12-18T07:01:34.043Z,101802.81
2022-12-18T07:04:02.469Z,101803.84
2022-12-18T07:06:30.826Z,101802.13
2022-12-18T07:08:59.053Z,101803.84
2022-12-18T07:11:27.307Z,101795.66
2022-12-18T07:13:56.283Z,101800.78
2022-12-18T07:16:25.983Z,101788.59
2022-12-18T07:18:56.329Z,101794.06
2022-12-18T07:21:26.507Z,101792.47
2022-12-18T07:23:55.200Z,101793.44
2022-12-18T07:26:24.889Z,101793.53
2022-12-18T07:28:57.116Z,101790.00
2022-12-18T07:31:26.109Z,101785.31
2022-12-18T07:33:54.962Z,101789.34
2022-12-18T07:36:23.518Z,101788.91
2022-12-18T07:38:54.305Z,101783.69
2022-12-18T07:41:23.492Z,101779.59
2022-12-18T07:43:51.793Z,101779.97
2022-12-18T07:46:20.782Z,101783.78
2022-12-18T07:48:50.160Z,101783.22
2022-12-18T07:51:19.863Z,101785.09
2022-12-18T07:53:49.713Z,101773.75
2022-12-18T07:56:30.518Z,101781.56
2022-12-18T07:59:00.884Z,101775.50
2022-12-18T08:01:29.554Z,101771.19
2022-12-18T08:03:57.958Z,101772.31
2022-12-18T08:06:26.491Z,101770.81
2022-12-18T08:08:56.426Z,101771.03
2022-12-18T08:11:26.519Z,101773.75
2022-12-18T08:13:55.886Z,101779.94
2022-12-18T08:16:24.891Z,101783.50
2022-12-18T08:18:55.144Z,101780.88
2022-12-18T08:21:29.538Z,101776.41
2022-12-18T08:24:00.368Z,101768.47
2022-12-18T08:26:31.384Z,101775.47
2022-12-18T08:29:01.613Z,101780.03
2022-12-18T08:31:31.209Z,101786.44
2022-12-18T08:33:59.893Z,101777.78
2022-12-18T08:36:28.475Z,101783.09
2022-12-18T08:38:56.845Z,101779.34
2022-12-18T08:41:25.481Z,101775.69
2022-12-18T08:44:11.842Z,101773.75
2022-12-18T08:46:42.683Z,101772.88
2022-12-18T08:49:12.733Z,101782.53
2022-12-18T08:51:41.714Z,101782.50
2022-12-18T08:54:13.068Z,101786.09
2022-12-18T08:56:41.526Z,101781.72
2022-12-18T08:59:17.324Z,101786.75
2022-12-18T09:01:48.923Z,101778.03
2022-12-18T09:04:17.615Z,101777.22
2022-12-18T09:06:45.881Z,101783.59
2022-12-18T09:09:14.658Z,101776.00
2022-12-18T09:11:43.046Z,101782.44
2022-12-18T09:14:12.101Z,101789.72
2022-12-18T09:16:40.639Z,101795.97
2022-12-18T09:19:09.436Z,101788.91
2022-12-18T09:21:39.578Z,101793.19
2022-12-18T09:24:15.359Z,101791.50
2022-12-18T09:26:47.002Z,101793.38
2022-12-18T09:29:18.821Z,101806.56
2022-12-18T09:31:47.062Z,101796.19
2022-12-18T09:34:15.512Z,101796.19
2022-12-18T09:36:44.102Z,101797.09
2022-12-18T09:39:12.424Z,101803.22
2022-12-18T09:41:48.047Z,101799.69
2022-12-18T09:44:30.255Z,101797.09
2022-12-18T09:47:13.248Z,101802.44
2022-12-18T09:49:45.894Z,101798.13
2022-12-18T09:52:25.138Z,101802.69
2022-12-18T09:55:18.604Z,101802.78
2022-12-18T09:58:14.177Z,101804.56
2022-12-18T10:00:43.077Z,101801.97
2022-12-18T10:03:17.389Z,101811.63
2022-12-18T10:05:48.777Z,101802.84
2022-12-18T10:08:25.167Z,101815.19
2022-12-18T10:11:03.782Z,101818.75
2022-12-18T10:13:37.420Z,101821.44
2022-12-18T10:16:14.641Z,101814.53
2022-12-18T10:19:11.714Z,101824.22
2022-12-18T10:21:45.716Z,101820.91
2022-12-18T10:24:33.476Z,101829.84
2022-12-18T10:27:25.338Z,101828.13
2022-12-18T10:29:54.701Z,101828.31
2022-12-18T10:32:29.601Z,101826.66
2022-12-18T10:35:01.114Z,101840.66
2022-12-18T10:37:31.073Z,101838.00
2022-12-18T10:40:10.618Z,101850.13
2022-12-18T10:45:30.074Z,101839.56
2022-12-18T10:47:58.609Z,101843.13
2022-12-18T10:51:10.468Z,101840.44
2022-12-18T10:53:36.801Z,101845.72
2022-12-18T10:56:30.069Z,101850.09
2022-12-18T11:00:29.517Z,101851.84
2022-12-18T11:03:34.179Z,101848.34
2022-12-18T11:06:57.608Z,101845.66
2022-12-18T11:09:37.730Z,101839.41
2022-12-18T11:16:28.527Z,101831.41
2022-12-18T11:19:27.744Z,101826.34
2022-12-18T11:21:59.643Z,101835.34
2022-12-18T11:24:38.373Z,101835.47
2022-12-18T11:27:28.844Z,101827.75
2022-12-18T11:30:27.657Z,101827.88
2022-12-18T11:33:27.428Z,101816.53
2022-12-18T11:36:29.792Z,101818.28
2022-12-18T11:39:27.385Z,101824.44
2022-12-18T11:42:29.658Z,101820.19
2022-12-18T11:45:28.574Z,101820.38
2022-12-18T11:48:15.468Z,101817.88
2022-12-18T11:51:01.532Z,101822.38
2022-12-18T11:53:32.634Z,101823.53
2022-12-18T11:56:30.751Z,101818.28
2022-12-18T11:59:16.103Z,101813.84
2022-12-18T12:02:17.465Z,101801.63
2022-12-18T12:05:01.025Z,101810.44
2022-12-18T12:10:58.975Z,101811.41
2022-12-18T12:14:19.181Z,101814.09
2022-12-18T12:17:27.054Z,101818.38
2022-12-18T12:20:21.517Z,101820.91
2022-12-18T12:26:28.528Z,101820.75
2022-12-18T12:29:03.504Z,101825.09
2022-12-18T12:31:58.972Z,101817.94
2022-12-18T12:35:00.264Z,101813.59
2022-12-18T12:37:42.758Z,101811.00
2022-12-18T12:43:37.596Z,101806.69
2022-12-18T12:46:31.530Z,101796.38
2022-12-18T12:49:14.297Z,101800.00
2022-12-18T12:54:30.484Z,101799.31
2022-12-18T12:57:30.295Z,101797.59
2022-12-18T13:00:37.852Z,101790.66
2022-12-18T13:04:00.406Z,101799.41
2022-12-18T13:06:42.990Z,101803.78
2022-12-18T13:09:37.954Z,101809.88
2022-12-18T13:12:56.229Z,101806.44
2022-12-18T13:15:39.886Z,101809.94
2022-12-18T13:18:30.938Z,101816.94
2022-12-18T13:21:02.965Z,101811.69
2022-12-18T13:23:34.902Z,101808.22
2022-12-18T13:26:29.117Z,101808.16
2022-12-18T13:29:03.690Z,101806.41
2022-12-18T13:31:57.757Z,101815.13
2022-12-18T13:34:33.330Z,101824.00
2022-12-18T13:37:42.780Z,101817.06
2022-12-18T13:40:42.405Z,101825.88
2022-12-18T13:43:33.691Z,101822.47
2022-12-18T13:50:00.080Z,101826.06
2022-12-18T13:52:35.641Z,101830.50
2022-12-18T13:55:29.634Z,101831.34
2022-12-18T13:58:27.968Z,101832.25
2022-12-18T14:01:01.005Z,101833.97
2022-12-18T14:03:31.774Z,101842.75
2022-12-18T14:09:00.970Z,101855.06
2022-12-18T14:11:29.533Z,101844.63
2022-12-18T14:14:15.308Z,101852.44
2022-12-18T14:16:44.962Z,101845.50
2022-12-18T14:19:26.282Z,101839.41
2022-12-18T14:22:04.206Z,101849.00
2022-12-18T14:25:09.674Z,101849.88
2022-12-18T14:27:56.801Z,101848.16
2022-12-18T14:33:58.602Z,101833.41
2022-12-18T14:36:37.703Z,101840.53
2022-12-18T14:39:06.014Z,101856.19
2022-12-18T14:41:41.485Z,101852.63
2022-12-18T14:44:13.495Z,101856.03
2022-12-18T14:46:45.160Z,101855.06
2022-12-18T14:49:36.192Z,101864.69
2022-12-18T14:52:10.069Z,101860.25
2022-12-18T14:54:40.115Z,101847.16
2022-12-18T14:57:37.759Z,101854.22
2022-12-18T15:00:17.914Z,101857.88
2022-12-18T15:02:58.021Z,101862.34
2022-12-18T15:05:31.613Z,101867.69
2022-12-18T15:08:02.408Z,101870.38
2022-12-18T15:10:58.382Z,101858.09
2022-12-18T15:13:30.025Z,101859.94
2022-12-18T15:16:00.224Z,101865.25
2022-12-18T15:18:58.533Z,101860.03
2022-12-18T15:24:33.565Z,101856.59
2022-12-18T15:27:03.360Z,101858.31
2022-12-18T15:30:03.923Z,101857.28
2022-12-18T15:32:59.029Z,101866.88
2022-12-18T15:35:30.444Z,101858.94
2022-12-18T15:37:58.763Z,101864.19
2022-12-18T15:46:28.654Z,101865.13
2022-12-18T15:49:02.484Z,101860.47
2022-12-18T15:51:53.804Z,101861.94
2022-12-18T15:57:34.738Z,101873.16
2022-12-18T16:00:03.144Z,101869.50
2022-12-18T16:02:56.181Z,101872.72
2022-12-18T16:05:30.904Z,101879.31
2022-12-18T16:08:00.051Z,101887.56
2022-12-18T16:10:29.538Z,101890.56
2022-12-18T16:13:02.337Z,101886.63
2022-12-18T16:19:07.502Z,101891.84
2022-12-18T16:25:05.070Z,101887.50
2022-12-18T16:30:06.778Z,101894.81
2022-12-18T16:50:01.818Z,101914.88
2022-12-18T16:52:33.356Z,101910.88
2022-12-18T16:55:08.590Z,101911.44
2022-12-18T16:58:03.197Z,101910.97
2022-12-18T17:07:19.810Z,101931.06
2022-12-18T17:32:58.932Z,101937.69
2022-12-18T17:36:32.249Z,101942.84
2022-12-18T17:39:02.848Z,101952.78
2022-12-18T18:20:42.090Z,101967.66
2022-12-18T19:15:22.489Z,101945.47
2022-12-18T19:17:58.512Z,101942.34
2022-12-18T19:20:29.896Z,101933.31
2022-12-18T19:22:58.334Z,101937.53
2022-12-18T19:26:17.069Z,101937.28
2022-12-18T19:29:04.516Z,101923.50
2022-12-18T19:32:03.224Z,101922.75
2022-12-18T19:37:31.044Z,101917.94
2022-12-18T19:40:05.228Z,101910.97
2022-12-18T19:46:01.109Z,101908.56
2022-12-18T19:48:33.582Z,101912.84
2022-12-18T19:51:31.207Z,101912.41
2022-12-18T19:54:03.105Z,101916.19
2022-12-18T19:59:36.757Z,101911.72
2022-12-18T20:02:07.820Z,101911.91
2022-12-18T20:05:00.947Z,101906.84
2022-12-18T20:08:03.060Z,101910.53
2022-12-18T20:10:33.067Z,101899.19
2022-12-18T20:13:01.375Z,101905.00
2022-12-18T20:21:01.820Z,101894.63
2022-12-18T20:23:32.828Z,101892.88
2022-12-18T20:26:03.039Z,101889.81
2022-12-18T20:28:50.639Z,101889.47
2022-12-18T20:31:30.795Z,101893.25
2022-12-18T20:34:03.680Z,101890.50
2022-12-18T20:36:35.229Z,101879.16
2022-12-18T20:39:06.520Z,101872.19
2022-12-18T20:44:33.315Z,101857.28
2022-12-18T20:47:05.203Z,101850.47
2022-12-18T20:49:45.824Z,101847.81
2022-12-18T20:55:02.253Z,101836.19
2022-12-18T20:57:33.826Z,101834.28
2022-12-18T21:00:03.420Z,101837.50
2022-12-18T21:02:31.934Z,101830.31
2022-12-18T21:05:03.408Z,101831.00
2022-12-18T21:07:31.747Z,101831.56
2022-12-18T21:10:02.889Z,101825.94
2022-12-18T21:13:04.514Z,101832.31
2022-12-18T21:15:34.397Z,101828.09
2022-12-18T21:18:02.772Z,101833.72
2022-12-18T21:20:31.423Z,101830.22
2022-12-18T21:23:14.292Z,101828.41
2022-12-18T21:25:55.999Z,101832.88
2022-12-18T21:28:33.535Z,101837.88
2022-12-18T21:31:03.753Z,101828.66
2022-12-18T21:33:32.154Z,101835.25
2022-12-18T21:36:04.373Z,101833.09
2022-12-18T21:38:32.693Z,101833.19
2022-12-18T21:41:08.805Z,101829.84
2022-12-18T21:44:02.203Z,101817.41
2022-12-18T21:46:59.836Z,101809.25
2022-12-18T21:49:32.015Z,101819.72
2022-12-18T21:52:03.902Z,101816.78
2022-12-18T21:57:20.099Z,101822.88
2022-12-18T21:59:53.963Z,101821.88
2022-12-18T22:02:24.329Z,101813.72
2022-12-18T22:04:52.765Z,101806.66
2022-12-18T22:07:24.692Z,101804.97
2022-12-18T22:09:52.967Z,101805.91
2022-12-18T22:12:43.505Z,101813.88
2022-12-18T22:15:21.154Z,101810.28
2022-12-18T22:17:52.713Z,101808.47
2022-12-18T22:20:30.252Z,101812.72
2022-12-18T22:23:01.016Z,101818.78
2022-12-18T22:25:35.296Z,101811.63
2022-12-18T22:28:25.066Z,101812.47
2022-12-18T22:30:59.141Z,101817.88
2022-12-18T22:33:28.430Z,101807.06
2022-12-18T22:35:56.728Z,101805.97
2022-12-18T22:38:24.974Z,101807.28
2022-12-18T22:40:53.241Z,101800.69
2022-12-18T22:43:21.671Z,101803.13
2022-12-18T22:45:49.948Z,101805.59
2022-12-18T22:48:18.286Z,101807.84
2022-12-18T22:50:47.379Z,101801.44
2022-12-18T22:53:17.511Z,101794.31
2022-12-18T22:55:45.829Z,101793.00
2022-12-18T22:58:14.537Z,101789.91
2022-12-18T23:00:42.800Z,101797.81
2022-12-18T23:03:11.176Z,101799.03
2022-12-18T23:05:41.410Z,101800.56
2022-12-18T23:08:10.043Z,101805.63
2022-12-18T23:10:41.658Z,101801.94
2022-12-18T23:13:10.008Z,101808.22
2022-12-18T23:15:43.947Z,101802.81
2022-12-18T23:18:12.500Z,101808.22
2022-12-18T23:20:40.906Z,101815.53
2022-12-18T23:23:10.468Z,101817.50
2022-12-18T23:25:38.960Z,101822.06
2022-12-18T23:28:07.459Z,101830.88
2022-12-18T23:30:35.989Z,101840.63
2022-12-18T23:33:04.253Z,101834.50
2022-12-18T23:35:32.605Z,101831.16
2022-12-18T23:38:01.045Z,101839.22
2022-12-18T23:40:30.796Z,101844.56
2022-12-18T23:43:01.148Z,101840.25
2022-12-18T23:45:29.478Z,101843.94
2022-12-18T23:47:57.722Z,101840.50
2022-12-18T23:50:29.335Z,101852.16
2022-12-18T23:53:02.086Z,101863.06
2022-12-18T23:55:33.768Z,101859.63
2022-12-18T23:58:01.986Z,101864.38
